createdAt,value
2017-10-05T00:00:44.268Z,15.30
2017-10-05T00:01:44.231Z,18.20
2017-10-05T00:02:44.201Z,16.60
2017-10-05T00:03:44.167Z,18.80
2017-10-05T00:04:44.134Z,11.90
2017-10-05T00:05:44.097Z,15.10
2017-10-05T00:06:44.063Z,16.80
2017-10-05T00:07:44.023Z,23.20
2017-10-05T00:08:43.999Z,16.30
2017-10-05T00:09:43.964Z,17.10
2017-10-05T00:10:43.929Z,10.70
2017-10-05T00:11:43.894Z,20.60
2017-10-05T00:12:43.860Z,14.10
2017-10-05T00:13:43.827Z,21.40
2017-10-05T00:14:43.793Z,17.10
2017-10-05T00:15:43.757Z,16.00
2017-10-05T00:16:43.726Z,16.30
2017-10-05T00:17:43.692Z,12.20
2017-10-05T00:18:43.662Z,15.50
2017-10-05T00:19:43.627Z,18.90
2017-10-05T00:20:43.591Z,16.50
2017-10-05T00:21:43.555Z,19.20
2017-10-05T00:22:43.527Z,10.90
2017-10-05T00:23:43.489Z,16.60
2017-10-05T00:24:43.457Z,10.90
2017-10-05T00:25:43.423Z,13.40
2017-10-05T00:26:43.392Z,16.00
2017-10-05T00:27:43.355Z,14.50
2017-10-05T00:28:43.321Z,16.70
2017-10-05T00:29:43.289Z,16.60
2017-10-05T00:30:43.253Z,17.80
2017-10-05T00:31:43.219Z,19.10
2017-10-05T00:32:43.185Z,16.90
2017-10-05T00:33:43.151Z,15.20
2017-10-05T00:34:43.117Z,20.00
2017-10-05T00:35:43.083Z,15.70
2017-10-05T00:36:43.052Z,16.30
2017-10-05T00:37:43.016Z,19.00
2017-10-05T00:38:42.982Z,17.70
2017-10-05T00:39:42.947Z,18.30
2017-10-05T00:40:42.916Z,14.30
2017-10-05T00:41:42.882Z,17.20
2017-10-05T00:42:42.846Z,18.30
2017-10-05T00:43:42.813Z,12.60
2017-10-05T00:44:42.779Z,14.70
2017-10-05T00:45:42.746Z,18.10
2017-10-05T00:46:42.712Z,20.00
2017-10-05T00:47:42.677Z,13.40
2017-10-05T00:48:42.645Z,15.30
2017-10-05T00:49:42.611Z,19.20
2017-10-05T00:50:42.575Z,16.50
2017-10-05T00:51:42.541Z,17.20
2017-10-05T00:52:42.508Z,16.00
2017-10-05T00:53:42.475Z,16.00
2017-10-05T00:54:42.442Z,17.60
2017-10-05T00:55:42.411Z,12.70
2017-10-05T00:56:42.373Z,19.70
2017-10-05T00:57:42.339Z,16.90
2017-10-05T00:58:42.311Z,26.10
2017-10-05T00:59:42.271Z,21.70
2017-10-05T01:00:42.238Z,15.40
2017-10-05T01:01:42.205Z,14.60
2017-10-05T01:02:42.170Z,17.20
2017-10-05T01:03:42.136Z,15.20
2017-10-05T01:04:42.104Z,17.80
2017-10-05T01:05:42.069Z,15.80
2017-10-05T01:06:42.048Z,20.40
2017-10-05T01:07:42.001Z,29.40
2017-10-05T01:08:41.968Z,15.90
2017-10-05T01:09:41.933Z,15.90
2017-10-05T01:10:41.900Z,13.70
2017-10-05T01:11:41.866Z,20.20
2017-10-05T01:12:41.831Z,16.10
2017-10-05T01:13:41.798Z,22.30
2017-10-05T01:14:41.766Z,21.20
2017-10-05T01:15:41.730Z,11.90
2017-10-05T01:16:41.696Z,18.70
2017-10-05T01:17:41.666Z,15.90
2017-10-05T01:18:41.631Z,15.60
2017-10-05T01:19:41.596Z,16.20
2017-10-05T01:20:41.562Z,19.60
2017-10-05T01:21:41.527Z,16.40
2017-10-05T01:22:41.495Z,14.30
2017-10-05T01:23:41.461Z,15.20
2017-10-05T01:24:41.429Z,16.70
2017-10-05T01:25:41.394Z,23.70
2017-10-05T01:26:41.359Z,19.50
2017-10-05T01:27:41.325Z,14.70
2017-10-05T01:28:41.292Z,14.10
2017-10-05T01:29:41.258Z,19.50
2017-10-05T01:30:41.225Z,23.20
2017-10-05T01:31:41.189Z,20.50
2017-10-05T01:32:41.156Z,19.30
2017-10-05T01:33:41.121Z,18.40
2017-10-05T01:34:41.089Z,19.70
2017-10-05T01:35:41.051Z,15.60
2017-10-05T01:36:41.020Z,17.10
2017-10-05T01:37:40.988Z,18.80
2017-10-05T01:38:40.954Z,21.50
2017-10-05T01:39:40.913Z,17.10
2017-10-05T01:40:40.883Z,15.40
2017-10-05T01:41:40.851Z,15.80
2017-10-05T01:42:40.818Z,15.90
2017-10-05T01:43:40.783Z,22.70
2017-10-05T01:44:40.749Z,20.90
2017-10-05T01:45:40.715Z,21.20
2017-10-05T01:46:40.682Z,18.70
2017-10-05T01:47:40.647Z,17.60
2017-10-05T01:48:40.615Z,18.60
2017-10-05T01:49:40.584Z,14.50
2017-10-05T01:50:40.547Z,13.70
2017-10-05T01:51:40.513Z,15.10
2017-10-05T01:52:40.654Z,13.70
2017-10-05T01:53:40.445Z,21.80
2017-10-05T01:54:40.412Z,15.50
2017-10-05T01:55:40.378Z,16.20
2017-10-05T01:56:40.344Z,17.10
2017-10-05T01:57:40.308Z,16.20
2017-10-05T01:58:40.278Z,14.80
2017-10-05T01:59:40.242Z,25.20
2017-10-05T02:00:40.209Z,18.30
2017-10-05T02:01:40.175Z,20.50
2017-10-05T02:02:40.141Z,20.80
2017-10-05T02:03:40.105Z,14.70
2017-10-05T02:04:40.067Z,15.90
2017-10-05T02:05:40.041Z,17.00
2017-10-05T02:06:40.005Z,21.20
2017-10-05T02:07:39.971Z,22.40
2017-10-05T02:08:39.936Z,23.50
2017-10-05T02:09:39.904Z,15.10
2017-10-05T02:10:39.870Z,13.70
2017-10-05T02:11:39.836Z,15.80
2017-10-05T02:12:39.802Z,17.20
2017-10-05T02:13:39.766Z,13.10
2017-10-05T02:14:39.734Z,12.90
2017-10-05T02:15:39.700Z,11.10
2017-10-05T02:16:39.665Z,17.80
2017-10-05T02:17:39.632Z,20.50
2017-10-05T02:18:39.599Z,15.30
2017-10-05T02:19:39.565Z,18.40
2017-10-05T02:20:39.531Z,12.90
2017-10-05T02:21:39.497Z,23.20
2017-10-05T02:22:39.463Z,17.80
2017-10-05T02:23:39.430Z,15.10
2017-10-05T02:24:39.394Z,17.80
2017-10-05T02:25:39.362Z,19.30
2017-10-05T02:26:39.328Z,19.40
2017-10-05T02:27:39.292Z,12.50
2017-10-05T02:28:39.258Z,15.10
2017-10-05T02:29:39.223Z,15.00
2017-10-05T02:30:39.194Z,16.30
2017-10-05T02:31:39.157Z,15.90
2017-10-05T02:32:39.123Z,19.50
2017-10-05T02:33:39.090Z,20.00
2017-10-05T02:34:39.056Z,17.10
2017-10-05T02:35:39.022Z,13.80
2017-10-05T02:36:38.987Z,16.50
2017-10-05T02:37:38.954Z,22.20
2017-10-05T02:38:38.919Z,17.00
2017-10-05T02:39:38.886Z,12.60
2017-10-05T02:40:38.852Z,18.60
2017-10-05T02:41:38.818Z,21.40
2017-10-05T02:42:38.784Z,12.90
2017-10-05T02:43:38.751Z,15.20
2017-10-05T02:44:38.715Z,17.40
2017-10-05T02:45:38.686Z,17.30
2017-10-05T02:46:38.653Z,15.20
2017-10-05T02:47:38.615Z,23.20
2017-10-05T02:48:38.580Z,17.00
2017-10-05T02:49:38.548Z,19.40
2017-10-05T02:50:38.514Z,19.60
2017-10-05T02:51:38.479Z,14.70
2017-10-05T02:52:38.446Z,12.90
2017-10-05T02:53:38.412Z,17.80
2017-10-05T02:54:38.379Z,11.00
2017-10-05T02:55:38.342Z,12.90
2017-10-05T02:56:38.309Z,10.90
2017-10-05T02:57:38.272Z,10.30
2017-10-05T02:58:38.240Z,13.80
2017-10-05T02:59:38.206Z,12.70
2017-10-05T03:00:38.172Z,13.30
2017-10-05T03:01:38.139Z,14.10
2017-10-05T03:02:38.105Z,15.40
2017-10-05T03:03:38.071Z,24.20
2017-10-05T03:04:38.038Z,13.90
2017-10-05T03:05:38.003Z,14.50
2017-10-05T03:06:37.971Z,22.40
2017-10-05T03:07:37.934Z,14.80
2017-10-05T03:08:37.901Z,16.00
2017-10-05T03:09:37.869Z,23.10
2017-10-05T03:10:37.834Z,14.00
2017-10-05T03:11:37.799Z,14.90
2017-10-05T03:12:37.766Z,14.70
2017-10-05T03:13:37.733Z,17.10
2017-10-05T03:14:37.701Z,11.00
2017-10-05T03:15:37.663Z,16.80
2017-10-05T03:16:37.629Z,14.50
2017-10-05T03:17:37.599Z,22.10
2017-10-05T03:18:37.562Z,13.50
2017-10-05T03:19:37.536Z,12.30
2017-10-05T03:20:37.492Z,15.60
2017-10-05T03:21:37.459Z,15.40
2017-10-05T03:22:37.427Z,12.90
2017-10-05T03:23:37.390Z,23.80
2017-10-05T03:24:37.357Z,15.10
2017-10-05T03:25:37.324Z,19.50
2017-10-05T03:26:37.290Z,18.80
2017-10-05T03:27:37.255Z,13.70
2017-10-05T03:28:37.221Z,12.90
2017-10-05T03:29:37.186Z,21.30
2017-10-05T03:30:37.153Z,21.00
2017-10-05T03:31:37.117Z,20.40
2017-10-05T03:32:37.082Z,18.30
2017-10-05T03:33:37.051Z,17.20
2017-10-05T03:34:37.016Z,18.20
2017-10-05T03:35:36.982Z,17.60
2017-10-05T03:36:36.948Z,16.10
2017-10-05T03:37:36.914Z,11.80
2017-10-05T03:38:36.881Z,12.90
2017-10-05T03:39:36.844Z,18.50
2017-10-05T03:40:36.811Z,19.00
2017-10-05T03:41:36.776Z,15.40
2017-10-05T03:42:36.744Z,10.70
2017-10-05T03:43:36.712Z,17.60
2017-10-05T03:44:36.675Z,16.70
2017-10-05T03:45:36.642Z,15.80
2017-10-05T03:46:36.607Z,18.20
2017-10-05T03:47:36.572Z,12.70
2017-10-05T03:48:36.540Z,16.80
2017-10-05T03:49:36.505Z,14.40
2017-10-05T03:50:36.472Z,15.00
2017-10-05T03:51:36.438Z,20.50
2017-10-05T03:52:36.405Z,17.30
2017-10-05T03:53:36.369Z,13.30
2017-10-05T03:54:36.334Z,17.10
2017-10-05T03:55:36.301Z,16.80
2017-10-05T03:56:36.269Z,11.10
2017-10-05T03:57:36.232Z,16.10
2017-10-05T03:58:36.199Z,18.60
2017-10-05T03:59:36.164Z,10.90
2017-10-05T04:00:36.131Z,15.90
2017-10-05T04:01:36.097Z,11.90
2017-10-05T04:02:36.063Z,13.60
2017-10-05T04:03:36.028Z,22.10
2017-10-05T04:04:35.997Z,18.10
2017-10-05T04:05:35.961Z,14.10
2017-10-05T04:06:35.926Z,17.70
2017-10-05T04:07:35.893Z,14.90
2017-10-05T04:08:35.859Z,17.70
2017-10-05T04:09:35.824Z,13.30
2017-10-05T04:10:35.790Z,12.10
2017-10-05T04:11:35.755Z,13.70
2017-10-05T04:12:35.723Z,19.90
2017-10-05T04:13:35.689Z,16.40
2017-10-05T04:14:35.655Z,14.80
2017-10-05T04:15:35.619Z,13.20
2017-10-05T04:16:35.586Z,13.40
2017-10-05T04:17:35.554Z,17.30
2017-10-05T04:18:35.519Z,13.80
2017-10-05T04:19:35.485Z,23.60
2017-10-05T04:20:35.451Z,15.00
2017-10-05T04:21:35.417Z,14.20
2017-10-05T04:22:35.385Z,14.70
2017-10-05T04:23:35.349Z,12.80
2017-10-05T04:24:35.314Z,19.30
2017-10-05T04:25:35.280Z,14.70
2017-10-05T04:26:35.248Z,17.20
2017-10-05T04:27:35.213Z,16.20
2017-10-05T04:28:35.179Z,13.30
2017-10-05T04:29:35.146Z,11.90
2017-10-05T04:30:35.111Z,13.00
2017-10-05T04:31:35.093Z,14.00
2017-10-05T04:32:35.044Z,13.10
2017-10-05T04:33:35.010Z,14.60
2017-10-05T04:34:34.975Z,15.40
2017-10-05T04:35:34.942Z,12.20
2017-10-05T04:36:34.907Z,17.60
2017-10-05T04:37:34.874Z,15.60
2017-10-05T04:38:34.839Z,23.00
2017-10-05T04:39:34.803Z,16.50
2017-10-05T04:40:34.772Z,18.90
2017-10-05T04:41:34.737Z,23.90
2017-10-05T04:42:34.705Z,29.20
2017-10-05T04:43:34.669Z,27.10
2017-10-05T04:44:34.635Z,40.60
2017-10-05T04:45:34.606Z,25.20
2017-10-05T04:46:34.568Z,21.40
2017-10-05T04:47:34.533Z,18.40
2017-10-05T04:48:34.500Z,16.40
2017-10-05T04:49:34.466Z,15.80
2017-10-05T04:50:34.432Z,21.70
2017-10-05T04:51:34.397Z,14.00
2017-10-05T04:52:34.365Z,13.00
2017-10-05T04:53:34.330Z,15.30
2017-10-05T04:54:34.298Z,19.00
2017-10-05T04:55:34.257Z,15.60
2017-10-05T04:56:34.227Z,18.10
2017-10-05T04:57:34.194Z,15.40
2017-10-05T04:58:34.161Z,19.90
2017-10-05T04:59:34.127Z,14.10
2017-10-05T05:00:34.093Z,16.60
2017-10-05T05:01:34.059Z,14.50
2017-10-05T05:02:34.026Z,15.90
2017-10-05T05:03:33.993Z,23.90
2017-10-05T05:04:33.958Z,16.70
2017-10-05T05:05:33.924Z,15.90
2017-10-05T05:06:33.889Z,16.50
2017-10-05T05:07:33.854Z,13.20
2017-10-05T05:08:33.821Z,15.60
2017-10-05T05:09:33.787Z,15.60
2017-10-05T05:10:33.753Z,10.10
2017-10-05T05:11:33.721Z,17.40
2017-10-05T05:12:33.688Z,15.80
2017-10-05T05:13:33.650Z,17.90
2017-10-05T05:14:33.617Z,20.20
2017-10-05T05:15:33.583Z,17.10
2017-10-05T05:16:33.551Z,13.10
2017-10-05T05:17:33.516Z,17.00
2017-10-05T05:18:33.482Z,14.90
2017-10-05T05:19:33.447Z,20.30
2017-10-05T05:20:33.414Z,16.40
2017-10-05T05:21:33.380Z,18.30
2017-10-05T05:22:33.346Z,13.10
2017-10-05T05:23:33.311Z,11.80
2017-10-05T05:24:33.281Z,17.30
2017-10-05T05:25:33.245Z,16.90
2017-10-05T05:26:33.212Z,18.00
2017-10-05T05:27:33.174Z,17.60
2017-10-05T05:28:33.142Z,24.20
2017-10-05T05:29:33.110Z,20.70
2017-10-05T05:30:33.075Z,17.60
2017-10-05T05:31:33.040Z,14.60
2017-10-05T05:32:33.007Z,16.90
2017-10-05T05:33:32.973Z,16.40
2017-10-05T05:34:32.940Z,17.80
2017-10-05T05:35:32.905Z,15.30
2017-10-05T05:36:32.872Z,14.90
2017-10-05T05:37:32.837Z,20.10
2017-10-05T05:38:32.804Z,18.70
2017-10-05T05:39:32.770Z,15.10
2017-10-05T05:40:32.737Z,14.30
2017-10-05T05:41:32.702Z,11.90
2017-10-05T05:42:32.668Z,16.30
2017-10-05T05:43:32.635Z,15.60
2017-10-05T05:44:32.600Z,20.80
2017-10-05T05:45:32.566Z,21.80
2017-10-05T05:46:32.534Z,18.90
2017-10-05T05:47:32.500Z,16.50
2017-10-05T05:48:32.465Z,14.60
2017-10-05T05:49:32.432Z,17.50
2017-10-05T05:50:32.399Z,19.30
2017-10-05T05:51:32.364Z,17.00
2017-10-05T05:52:32.330Z,22.90
2017-10-05T05:53:32.297Z,23.00
2017-10-05T05:54:32.263Z,19.80
2017-10-05T05:55:32.227Z,19.90
2017-10-05T05:56:32.195Z,19.20
2017-10-05T05:57:32.162Z,22.30
2017-10-05T05:58:32.127Z,16.80
2017-10-05T05:59:32.093Z,13.20
2017-10-05T06:00:32.058Z,19.70
2017-10-05T06:01:32.025Z,15.90
2017-10-05T06:02:31.992Z,17.10
2017-10-05T06:03:31.956Z,17.10
2017-10-05T06:04:31.922Z,17.90
2017-10-05T06:05:31.889Z,16.10
2017-10-05T06:06:31.854Z,12.60
2017-10-05T06:07:31.821Z,20.70
2017-10-05T06:08:31.784Z,20.90
2017-10-05T06:09:31.751Z,23.10
2017-10-05T06:10:31.718Z,13.70
2017-10-05T06:11:31.683Z,18.20
2017-10-05T06:12:31.649Z,28.10
2017-10-05T06:13:31.616Z,23.10
2017-10-05T06:14:31.581Z,22.50
2017-10-05T06:15:31.545Z,14.60
2017-10-05T06:16:31.512Z,25.00
2017-10-05T06:17:31.478Z,16.60
2017-10-05T06:18:31.442Z,11.70
2017-10-05T06:19:31.414Z,14.20
2017-10-05T06:20:31.376Z,16.10
2017-10-05T06:21:31.341Z,29.90
2017-10-05T06:22:31.307Z,33.10
2017-10-05T06:23:31.272Z,30.80
2017-10-05T06:24:31.239Z,21.70
2017-10-05T06:25:31.206Z,12.90
2017-10-05T06:26:31.174Z,15.20
2017-10-05T06:27:31.136Z,21.80
2017-10-05T06:28:31.102Z,28.70
2017-10-05T06:29:31.069Z,18.90
2017-10-05T06:30:31.044Z,19.60
2017-10-05T06:31:31.000Z,12.70
2017-10-05T06:32:30.968Z,20.90
2017-10-05T06:33:30.933Z,17.10
2017-10-05T06:34:30.899Z,16.50
2017-10-05T06:35:30.866Z,17.00
2017-10-05T06:36:30.831Z,15.00
2017-10-05T06:37:30.797Z,20.10
2017-10-05T06:38:30.764Z,21.30
2017-10-05T06:39:30.729Z,17.50
2017-10-05T06:40:30.695Z,16.40
2017-10-05T06:41:30.663Z,21.20
2017-10-05T06:42:30.634Z,11.60
2017-10-05T06:43:30.594Z,15.90
2017-10-05T06:44:30.560Z,20.20
2017-10-05T06:45:30.528Z,18.90
2017-10-05T06:46:30.495Z,20.80
2017-10-05T06:47:30.458Z,20.50
2017-10-05T06:48:30.426Z,24.50
2017-10-05T06:49:30.391Z,20.00
2017-10-05T06:50:30.359Z,20.00
2017-10-05T06:51:30.325Z,17.20
2017-10-05T06:52:30.290Z,15.90
2017-10-05T06:53:30.257Z,24.40
2017-10-05T06:54:30.224Z,9.90
2017-10-05T06:55:30.190Z,22.70
2017-10-05T06:56:30.156Z,21.30
2017-10-05T06:57:30.122Z,28.10
2017-10-05T06:58:30.090Z,23.50
2017-10-05T06:59:30.056Z,23.40
2017-10-05T07:00:30.021Z,27.00
2017-10-05T07:01:29.989Z,20.30
2017-10-05T07:02:29.955Z,21.80
2017-10-05T07:03:29.919Z,29.70
2017-10-05T07:04:29.888Z,16.10
2017-10-05T07:05:29.854Z,19.60
2017-10-05T07:06:29.820Z,26.70
2017-10-05T07:07:29.785Z,18.10
2017-10-05T07:08:29.750Z,24.00
2017-10-05T07:09:29.719Z,41.00
2017-10-05T07:10:29.686Z,25.30
2017-10-05T07:11:29.651Z,40.70
2017-10-05T07:12:29.616Z,26.40
2017-10-05T07:13:29.584Z,33.20
2017-10-05T07:14:29.553Z,25.60
2017-10-05T07:15:29.516Z,27.60
2017-10-05T07:16:29.483Z,21.70
2017-10-05T07:17:29.448Z,20.60
2017-10-05T07:18:29.414Z,20.20
2017-10-05T07:19:29.383Z,30.20
2017-10-05T07:20:29.348Z,29.40
2017-10-05T07:21:29.315Z,21.90
2017-10-05T07:22:29.280Z,31.70
2017-10-05T07:23:29.247Z,33.70
2017-10-05T07:24:29.215Z,23.20
2017-10-05T07:25:29.180Z,27.80
2017-10-05T07:26:29.151Z,35.80
2017-10-05T07:27:29.113Z,37.60
2017-10-05T07:28:29.078Z,22.50
2017-10-05T07:29:29.048Z,24.00
2017-10-05T07:30:29.012Z,38.10
2017-10-05T07:31:28.978Z,28.20
2017-10-05T07:32:28.945Z,23.80
2017-10-05T07:33:28.910Z,25.30
2017-10-05T07:34:28.879Z,27.30
2017-10-05T07:35:28.841Z,30.10
2017-10-05T07:36:28.812Z,28.00
2017-10-05T07:37:28.775Z,36.60
2017-10-05T07:38:28.742Z,25.00
2017-10-05T07:39:28.711Z,16.40
2017-10-05T07:40:28.674Z,30.80
2017-10-05T07:41:28.642Z,18.80
2017-10-05T07:42:28.607Z,20.00
2017-10-05T07:43:28.573Z,14.00
2017-10-05T07:44:28.545Z,21.00
2017-10-05T07:45:28.509Z,22.90
2017-10-05T07:46:28.474Z,16.40
2017-10-05T07:47:28.438Z,17.70
2017-10-05T07:48:28.407Z,22.40
2017-10-05T07:49:28.375Z,38.50
2017-10-05T07:50:28.338Z,42.20
2017-10-05T07:51:28.304Z,34.10
2017-10-05T07:52:28.270Z,34.00
2017-10-05T07:53:28.237Z,24.30
2017-10-05T07:54:28.207Z,41.40
2017-10-05T07:55:28.171Z,25.60
2017-10-05T07:56:28.137Z,44.20
2017-10-05T07:57:28.104Z,24.10
2017-10-05T07:58:28.070Z,43.60
2017-10-05T07:59:28.038Z,31.40
2017-10-05T08:00:28.004Z,44.50
2017-10-05T08:01:27.969Z,34.30
2017-10-05T08:02:27.934Z,28.70
2017-10-05T08:03:27.901Z,40.10
2017-10-05T08:04:27.867Z,35.10
2017-10-05T08:05:27.835Z,25.90
2017-10-05T08:06:27.799Z,31.50
2017-10-05T08:07:27.766Z,25.50
2017-10-05T08:08:27.733Z,27.10
2017-10-05T08:09:27.703Z,19.90
2017-10-05T08:10:27.667Z,15.80
2017-10-05T08:11:27.632Z,20.10
2017-10-05T08:12:27.597Z,17.70
2017-10-05T08:13:27.566Z,24.00
2017-10-05T08:14:27.533Z,16.30
2017-10-05T08:15:27.497Z,19.10
2017-10-05T08:16:27.465Z,14.80
2017-10-05T08:17:27.430Z,12.80
2017-10-05T08:18:27.397Z,18.80
2017-10-05T08:19:27.365Z,13.60
2017-10-05T08:20:27.330Z,15.90
2017-10-05T08:21:27.295Z,16.10
2017-10-05T08:22:27.262Z,18.30
2017-10-05T08:23:27.228Z,16.80
2017-10-05T08:24:27.196Z,16.90
2017-10-05T08:25:27.160Z,19.20
2017-10-05T08:26:27.128Z,17.10
2017-10-05T08:27:27.093Z,15.20
2017-10-05T08:28:27.059Z,17.00
2017-10-05T08:29:27.029Z,21.00
2017-10-05T08:30:26.993Z,13.20
2017-10-05T08:31:26.961Z,17.50
2017-10-05T08:32:26.925Z,14.50
2017-10-05T08:33:26.891Z,14.50
2017-10-05T08:34:26.861Z,14.40
2017-10-05T08:35:26.823Z,12.50
2017-10-05T08:36:26.789Z,14.70
2017-10-05T08:37:26.756Z,13.40
2017-10-05T08:38:26.724Z,15.80
2017-10-05T08:39:26.690Z,11.90
2017-10-05T08:40:26.654Z,15.20
2017-10-05T08:41:26.622Z,15.20
2017-10-05T08:42:26.588Z,10.40
2017-10-05T08:43:26.553Z,13.20
2017-10-05T08:44:26.520Z,9.80
2017-10-05T08:45:26.487Z,14.50
2017-10-05T08:46:26.453Z,16.90
2017-10-05T08:47:26.419Z,17.90
2017-10-05T08:48:26.386Z,13.60
2017-10-05T08:49:26.352Z,14.40
2017-10-05T08:50:26.318Z,13.10
2017-10-05T08:51:26.285Z,10.60
2017-10-05T08:52:26.250Z,15.10
2017-10-05T08:53:26.217Z,10.80
2017-10-05T08:54:26.184Z,11.50
2017-10-05T08:55:26.150Z,12.80
2017-10-05T08:56:26.117Z,9.70
2017-10-05T08:57:26.082Z,13.30
2017-10-05T08:58:26.049Z,12.80
2017-10-05T08:59:26.013Z,15.80
2017-10-05T09:00:25.980Z,9.40
2017-10-05T09:01:25.947Z,12.20
2017-10-05T09:02:25.913Z,10.90
2017-10-05T09:03:25.881Z,11.70
2017-10-05T09:04:25.848Z,13.20
2017-10-05T09:05:25.813Z,10.80
2017-10-05T09:06:25.780Z,13.70
2017-10-05T09:07:25.746Z,11.60
2017-10-05T09:08:25.710Z,9.60
2017-10-05T09:09:25.678Z,10.80
2017-10-05T09:10:25.646Z,10.90
2017-10-05T09:11:25.610Z,10.30
2017-10-05T09:12:25.576Z,7.20
2017-10-05T09:13:25.543Z,9.80
2017-10-05T09:14:25.511Z,11.20
2017-10-05T09:15:25.474Z,9.70
2017-10-05T09:16:25.443Z,9.80
2017-10-05T09:17:25.422Z,9.90
2017-10-05T09:18:25.375Z,15.50
2017-10-05T09:19:25.342Z,6.60
2017-10-05T09:20:25.309Z,10.80
2017-10-05T09:21:25.275Z,11.70
2017-10-05T09:22:25.241Z,12.90
2017-10-05T09:23:25.208Z,7.80
2017-10-05T09:24:25.174Z,10.30
2017-10-05T09:25:25.139Z,9.70
2017-10-05T09:26:25.107Z,10.10
2017-10-05T09:27:25.096Z,10.80
2017-10-05T09:28:25.040Z,6.70
2017-10-05T09:29:25.008Z,8.00
2017-10-05T09:30:24.970Z,8.60
2017-10-05T09:31:24.940Z,8.40
2017-10-05T09:32:24.906Z,8.20
2017-10-05T09:33:24.873Z,7.60
2017-10-05T09:34:24.839Z,5.20
2017-10-05T09:35:24.805Z,11.60
2017-10-05T09:36:24.772Z,10.50
2017-10-05T09:37:24.738Z,6.80
2017-10-05T09:38:24.705Z,7.30
2017-10-05T09:39:24.669Z,8.70
2017-10-05T09:40:24.640Z,13.70
2017-10-05T09:41:24.603Z,9.50
2017-10-05T09:42:24.571Z,7.50
2017-10-05T09:43:24.537Z,7.40
2017-10-05T09:44:24.506Z,7.90
2017-10-05T09:45:24.470Z,5.40
2017-10-05T09:46:24.439Z,7.50
2017-10-05T09:47:24.402Z,8.80
2017-10-05T09:48:24.370Z,10.70
2017-10-05T09:49:24.339Z,10.90
2017-10-05T09:50:24.304Z,8.50
2017-10-05T09:51:24.269Z,6.10
2017-10-05T09:52:24.237Z,10.80
2017-10-05T09:53:24.204Z,6.90
2017-10-05T09:54:24.171Z,12.00
2017-10-05T09:55:24.137Z,7.80
2017-10-05T09:56:24.103Z,6.60
2017-10-05T09:57:24.072Z,6.90
2017-10-05T09:58:24.037Z,6.10
2017-10-05T09:59:24.007Z,15.90
2017-10-05T10:00:23.971Z,11.70
2017-10-05T10:01:23.937Z,9.50
2017-10-05T10:02:23.904Z,7.50
2017-10-05T10:03:23.871Z,10.00
2017-10-05T10:04:23.837Z,5.50
2017-10-05T10:05:23.804Z,15.10
2017-10-05T10:06:23.772Z,13.50
2017-10-05T10:07:23.738Z,8.70
2017-10-05T10:08:23.704Z,6.50
2017-10-05T10:09:23.671Z,6.00
2017-10-05T10:10:23.639Z,7.80
2017-10-05T10:11:23.605Z,9.20
2017-10-05T10:12:23.572Z,6.80
2017-10-05T10:13:23.539Z,7.60
2017-10-05T10:14:23.505Z,4.20
2017-10-05T10:15:23.472Z,9.50
2017-10-05T10:16:23.440Z,9.40
2017-10-05T10:17:23.407Z,7.60
2017-10-05T10:18:23.373Z,6.90
2017-10-05T10:19:23.342Z,10.50
2017-10-05T10:20:23.307Z,9.20
2017-10-05T10:21:23.273Z,7.90
2017-10-05T10:22:23.243Z,6.30
2017-10-05T10:23:23.208Z,6.10
2017-10-05T10:24:23.175Z,17.10
2017-10-05T10:25:23.143Z,16.60
2017-10-05T10:26:23.114Z,15.10
2017-10-05T10:27:23.076Z,24.50
2017-10-05T10:28:23.044Z,20.70
2017-10-05T10:29:23.011Z,21.70
2017-10-05T10:30:22.978Z,21.70
2017-10-05T10:31:22.944Z,31.70
2017-10-05T10:32:22.913Z,16.60
2017-10-05T10:33:22.879Z,24.90
2017-10-05T10:34:22.850Z,17.70
2017-10-05T10:35:22.814Z,23.80
2017-10-05T10:36:22.784Z,7.50
2017-10-05T10:37:22.749Z,9.70
2017-10-05T10:38:22.720Z,4.70
2017-10-05T10:39:22.683Z,7.10
2017-10-05T10:40:22.645Z,9.80
2017-10-05T10:41:22.617Z,6.80
2017-10-05T10:42:22.584Z,9.40
2017-10-05T10:43:22.551Z,14.30
2017-10-05T10:44:22.520Z,9.70
2017-10-05T10:45:22.481Z,12.50
2017-10-05T10:46:22.454Z,11.30
2017-10-05T10:47:22.418Z,10.80
2017-10-05T10:48:22.383Z,15.70
2017-10-05T10:49:22.351Z,12.50
2017-10-05T10:50:22.349Z,16.30
2017-10-05T10:51:22.284Z,19.40
2017-10-05T10:52:22.250Z,17.30
2017-10-05T10:53:22.217Z,9.30
2017-10-05T10:54:22.183Z,6.40
2017-10-05T10:55:22.150Z,8.90
2017-10-05T10:56:22.117Z,11.10
2017-10-05T10:57:22.082Z,11.80
2017-10-05T10:58:22.051Z,9.50
2017-10-05T10:59:22.017Z,10.30
2017-10-05T11:00:21.982Z,15.10
2017-10-05T11:01:21.948Z,14.00
2017-10-05T11:02:21.916Z,19.70
2017-10-05T11:03:21.879Z,17.90
2017-10-05T11:04:21.847Z,20.00
2017-10-05T11:05:21.814Z,19.30
2017-10-05T11:06:21.781Z,20.90
2017-10-05T11:07:21.747Z,22.00
2017-10-05T11:08:21.712Z,15.10
2017-10-05T11:09:21.678Z,21.70
2017-10-05T11:10:21.646Z,24.50
2017-10-05T11:11:21.612Z,20.60
2017-10-05T11:12:21.578Z,30.20
2017-10-05T11:13:21.544Z,30.00
2017-10-05T11:14:21.510Z,25.00
2017-10-05T11:15:21.477Z,32.30
2017-10-05T11:16:21.444Z,27.70
2017-10-05T11:17:21.411Z,25.10
2017-10-05T11:18:21.377Z,25.60
2017-10-05T11:19:21.344Z,27.20
2017-10-05T11:20:21.310Z,25.90
2017-10-05T11:21:21.276Z,32.40
2017-10-05T11:22:21.244Z,36.20
2017-10-05T11:23:21.210Z,38.10
2017-10-05T11:24:21.179Z,31.60
2017-10-05T11:25:21.146Z,38.70
2017-10-05T11:26:21.113Z,35.30
2017-10-05T11:27:21.081Z,38.60
2017-10-05T11:28:21.046Z,29.80
2017-10-05T11:29:21.013Z,29.90
2017-10-05T11:30:20.980Z,37.60
2017-10-05T11:31:20.946Z,39.40
2017-10-05T11:32:20.914Z,37.70
2017-10-05T11:33:20.880Z,34.30
2017-10-05T11:34:20.850Z,39.00
2017-10-05T11:35:20.817Z,40.60
2017-10-05T11:36:20.788Z,30.70
2017-10-05T11:37:20.751Z,36.00
2017-10-05T11:38:20.720Z,37.40
2017-10-05T11:39:20.701Z,40.70
2017-10-05T11:40:20.655Z,32.70
2017-10-05T11:41:20.622Z,31.70
2017-10-05T11:42:20.594Z,37.50
2017-10-05T11:43:20.557Z,51.90
2017-10-05T11:44:20.524Z,32.00
2017-10-05T11:45:20.493Z,29.60
2017-10-05T11:46:20.460Z,25.80
2017-10-05T11:47:20.427Z,29.80
2017-10-05T11:48:20.396Z,30.80
2017-10-05T11:49:20.362Z,30.80
2017-10-05T11:50:20.332Z,30.60
2017-10-05T11:51:20.298Z,32.90
2017-10-05T11:52:20.265Z,27.10
2017-10-05T11:53:20.233Z,31.20
2017-10-05T11:54:20.203Z,27.20
2017-10-05T11:55:20.168Z,28.50
2017-10-05T11:56:20.138Z,33.50
2017-10-05T11:57:20.107Z,29.20
2017-10-05T11:58:20.073Z,28.10
2017-10-05T11:59:20.041Z,28.50
2017-10-05T12:00:20.009Z,25.60
2017-10-05T12:01:19.978Z,15.70
2017-10-05T12:02:19.948Z,20.80
2017-10-05T12:03:19.912Z,20.70
2017-10-05T12:04:19.881Z,15.70
2017-10-05T12:05:19.851Z,26.60
2017-10-05T12:06:19.818Z,17.60
2017-10-05T12:07:19.786Z,21.30
2017-10-05T12:08:19.757Z,19.00
2017-10-05T12:09:19.728Z,21.30
2017-10-05T12:10:19.697Z,18.30
2017-10-05T12:11:19.666Z,16.40
2017-10-05T12:12:19.634Z,12.70
2017-10-05T12:13:19.610Z,13.80
2017-10-05T12:14:19.575Z,12.30
2017-10-05T12:15:19.544Z,15.70
2017-10-05T12:16:19.517Z,11.40
2017-10-05T12:17:19.488Z,14.90
2017-10-05T12:18:19.460Z,13.50
2017-10-05T12:19:19.432Z,12.00
2017-10-05T12:20:19.404Z,7.80
2017-10-05T12:21:19.376Z,12.90
2017-10-05T12:22:19.348Z,16.00
2017-10-05T12:23:19.322Z,10.60
2017-10-05T12:24:19.296Z,9.00
2017-10-05T12:25:19.269Z,8.30
2017-10-05T12:26:19.251Z,8.60
2017-10-05T12:27:19.217Z,10.20
2017-10-05T12:28:19.193Z,11.90
2017-10-05T12:29:19.169Z,12.70
2017-10-05T12:30:19.143Z,11.10
2017-10-05T12:31:19.119Z,12.60
2017-10-05T12:32:19.100Z,12.70
2017-10-05T12:33:19.071Z,9.00
2017-10-05T12:34:19.045Z,12.80
2017-10-05T12:35:19.022Z,12.50
2017-10-05T12:36:18.999Z,10.70
2017-10-05T12:37:18.975Z,9.20
2017-10-05T12:38:18.955Z,9.80
2017-10-05T12:39:18.925Z,11.10
2017-10-05T12:40:18.903Z,11.00
2017-10-05T12:41:18.879Z,15.20
2017-10-05T12:42:18.857Z,10.50
2017-10-05T12:43:18.836Z,8.70
2017-10-05T12:44:18.810Z,9.40
2017-10-05T12:45:18.787Z,7.90
2017-10-05T12:46:18.763Z,6.30
2017-10-05T12:47:18.740Z,7.80
2017-10-05T12:48:18.718Z,9.60
2017-10-05T12:49:18.699Z,13.10
2017-10-05T12:50:18.673Z,14.80
2017-10-05T12:51:18.649Z,9.10
2017-10-05T12:52:18.629Z,11.30
2017-10-05T12:53:18.606Z,13.20
2017-10-05T12:54:18.589Z,11.30
2017-10-05T12:55:18.564Z,9.40